| time (UTC) | temp F | wind direction | speed MPH | gust MPH | rain 1hr in | rain 24hr in | rain mn in | humidity % | barometer mb |
| 20260505164531 | 66 | 308 | 3.0 | 9.0 | 0.00 | 0.00 | 0.00 | 62 | 1014.9 |
| 20260505163029 | 66 | 318 | 3.0 | 8.0 | 0.00 | 0.00 | 0.00 | 63 | 1015.0 |
| 20260505153031 | 63 | 141 | 1.0 | 4.0 | 0.00 | 0.00 | 0.00 | 67 | 1014.8 |
| 20260505151530 | 62 | 153 | 1.0 | 4.0 | 0.00 | 0.00 | 0.00 | 69 | 1014.7 |
| 20260505124607 | 55 | 303 | 0.0 | 4.0 | 0.00 | 0.00 | 0.00 | 78 | 1013.2 |
| 20260505123032 | 56 | 337 | 0.0 | 1.0 | 0.00 | 0.00 | 0.00 | 75 | 1013.2 |
| 20260505121532 | 57 | 293 | 0.0 | 5.0 | 0.00 | 0.00 | 0.00 | 73 | 1013.0 |
| 20260505120030 | 59 | 299 | 1.0 | 6.0 | 0.00 | 0.00 | 0.00 | 73 | 1012.9 |
| 20260505114533 | 58 | 294 | 2.0 | 9.0 | 0.00 | 0.00 | 0.00 | 73 | 1012.9 |
| 20260505113107 | 58 | 306 | 2.0 | 7.0 | 0.00 | 0.00 | 0.00 | 74 | 1012.8 |
| 20260505111533 | 58 | 300 | 1.0 | 5.0 | 0.00 | 0.00 | 0.00 | 74 | 1012.6 |
| 20260505101532 | 60 | 301 | 2.0 | 7.0 | 0.00 | 0.00 | 0.00 | 71 | 1012.2 |
| 20260505100037 | 60 | 307 | 0.0 | 5.0 | 0.00 | 0.00 | 0.00 | 71 | 1012.2 |
| 20260505094606 | 61 | 296 | 2.0 | 6.0 | 0.00 | 0.00 | 0.00 | 70 | 1012.1 |
| 20260505093031 | 61 | 293 | 2.0 | 5.0 | 0.00 | 0.00 | 0.00 | 70 | 1012.0 |
| 20260505091530 | 61 | 305 | 1.0 | 6.0 | 0.00 | 0.00 | 0.00 | 69 | 1011.9 |
| 20260505090107 | 61 | 292 | 1.0 | 7.0 | 0.00 | 0.00 | 0.00 | 69 | 1011.9 |
| 20260505083030 | 62 | 287 | 1.0 | 4.0 | 0.00 | 0.00 | 0.00 | 68 | 1011.9 |
| 20260505081532 | 62 | 320 | 0.0 | 4.0 | 0.00 | 0.00 | 0.00 | 67 | 1011.9 |
| 20260505080028 | 63 | 287 | 0.0 | 4.0 | 0.00 | 0.00 | 0.00 | 65 | 1011.9 |
| 20260505074531 | 64 | 297 | 1.0 | 6.0 | 0.00 | 0.00 | 0.00 | 65 | 1011.7 |
| 20260505073031 | 64 | 298 | 2.0 | 8.0 | 0.00 | 0.00 | 0.00 | 64 | 1011.5 |
| 20260505071532 | 64 | 298 | 2.0 | 7.0 | 0.00 | 0.00 | 0.00 | 63 | 1011.5 |
| 20260505070032 | 65 | 289 | 2.0 | 6.0 | 0.00 | 0.00 | 0.00 | 62 | 1011.5 |
| 20260505064646 | 65 | 285 | 2.0 | 8.0 | 0.00 | 0.00 | 0.00 | 61 | 1011.3 |
| 20260505063030 | 66 | 297 | 3.0 | 9.0 | 0.00 | 0.00 | 0.00 | 60 | 1011.2 |
| 20260505061533 | 66 | 295 | 4.0 | 12.0 | 0.00 | 0.00 | 0.00 | 59 | 1011.1 |
| 20260505060031 | 67 | 297 | 4.0 | 8.0 | 0.00 | 0.00 | 0.00 | 57 | 1011.0 |
| 20260505051532 | 68 | 294 | 4.0 | 12.0 | 0.00 | 0.00 | 0.00 | 52 | 1010.8 |
| 20260505041530 | 70 | 282 | 6.0 | 15.0 | 0.00 | 0.00 | 0.00 | 48 | 1010.1 |
| 20260505040046 | 70 | 279 | 5.0 | 14.0 | 0.00 | 0.00 | 0.00 | 48 | 1009.9 |
| 20260505034528 | 70 | 287 | 5.0 | 10.0 | 0.00 | 0.00 | 0.00 | 48 | 1009.8 |
| 20260505033030 | 70 | 280 | 4.0 | 12.0 | 0.00 | 0.00 | 0.00 | 48 | 1009.5 |
| 20260505031529 | 71 | 289 | 4.0 | 13.0 | 0.00 | 0.00 | 0.00 | 47 | 1009.4 |
| 20260505030105 | 72 | 290 | 5.0 | 14.0 | 0.00 | 0.00 | 0.00 | 46 | 1009.3 |
| 20260505024605 | 72 | 287 | 4.0 | 11.0 | 0.00 | 0.00 | 0.00 | 45 | 1009.2 |
| 20260505023031 | 74 | 281 | 3.0 | 11.0 | 0.00 | 0.00 | 0.00 | 43 | 1009.1 |
| 20260505020145 | 76 | 286 | 5.0 | 11.0 | 0.00 | 0.00 | 0.00 | 41 | 1009.2 |
| 20260505014532 | 76 | 284 | 3.0 | 9.0 | 0.00 | 0.00 | 0.00 | 41 | 1009.1 |
| 20260505013030 | 77 | 292 | 4.0 | 10.0 | 0.00 | 0.00 | 0.00 | 40 | 1009.1 |
| 20260505011532 | 78 | 290 | 4.0 | 7.0 | 0.00 | 0.00 | 0.00 | 39 | 1009.1 |
| 20260505010033 | 78 | 294 | 5.0 | 12.0 | 0.00 | 0.00 | 0.00 | 40 | 1009.0 |
| 20260505004607 | 78 | 294 | 4.0 | 14.0 | 0.00 | 0.00 | 0.00 | 42 | 1009.0 |
| 20260505003032 | 78 | 296 | 5.0 | 12.0 | 0.00 | 0.00 | 0.00 | 42 | 1009.1 |
| 20260505001529 | 79 | 304 | 4.0 | 10.0 | 0.00 | 0.00 | 0.00 | 41 | 1009.2 |
| 20260505000030 | 79 | 297 | 5.0 | 10.0 | 0.00 | 0.00 | 0.00 | 42 | 1009.2 |
| 20260504234531 | 80 | 299 | 4.0 | 10.0 | 0.00 | 0.00 | 0.00 | 42 | 1009.1 |
| 20260504233031 | 80 | 299 | 4.0 | 11.0 | 0.00 | 0.00 | 0.00 | 42 | 1009.2 |
| 20260504231529 | 81 | 295 | 4.0 | 14.0 | 0.00 | 0.00 | 0.00 | 42 | 1009.3 |
| 20260504230031 | 82 | 302 | 3.0 | 5.0 | 0.00 | 0.00 | 0.00 | 42 | 1009.5 |
| 20260504224531 | 81 | 307 | 3.0 | 11.0 | 0.00 | 0.00 | 0.00 | 43 | 1009.7 |
| 20260504221530 | 81 | 309 | 3.0 | 9.0 | 0.00 | 0.00 | 0.00 | 44 | 1009.9 |
| 20260504220031 | 80 | 312 | 3.0 | 13.0 | 0.00 | 0.00 | 0.00 | 47 | 1010.0 |
| 20260504214530 | 79 | 313 | 3.0 | 8.0 | 0.00 | 0.00 | 0.00 | 47 | 1010.3 |
| 20260504213031 | 80 | 312 | 3.0 | 8.0 | 0.00 | 0.00 | 0.00 | 48 | 1010.4 |
| 20260504211531 | 81 | 315 | 2.0 | 7.0 | 0.00 | 0.00 | 0.00 | 46 | 1010.5 |
| 20260504210030 | 82 | 318 | 2.0 | 6.0 | 0.00 | 0.00 | 0.00 | 43 | 1010.7 |
| 20260504204645 | 82 | 319 | 1.0 | 5.0 | 0.00 | 0.00 | 0.00 | 43 | 1010.8 |
| 20260504203031 | 82 | 322 | 1.0 | 4.0 | 0.00 | 0.00 | 0.00 | 44 | 1011.0 |
| 20260504201529 | 81 | 315 | 2.0 | 6.0 | 0.00 | 0.00 | 0.00 | 44 | 1011.1 |
| 20260504200032 | 80 | 312 | 3.0 | 7.0 | 0.00 | 0.00 | 0.00 | 45 | 1011.2 |
| 20260504194605 | 79 | 308 | 3.0 | 8.0 | 0.00 | 0.00 | 0.00 | 46 | 1011.2 |
| 20260504193030 | 78 | 308 | 3.0 | 8.0 | 0.00 | 0.00 | 0.00 | 47 | 1011.3 |
| 20260504191529 | 78 | 315 | 3.0 | 8.0 | 0.00 | 0.00 | 0.00 | 48 | 1011.4 |
| 20260504190033 | 77 | 309 | 3.0 | 8.0 | 0.00 | 0.00 | 0.00 | 48 | 1011.4 |
| 20260504184531 | 76 | 314 | 4.0 | 9.0 | 0.00 | 0.00 | 0.00 | 49 | 1011.5 |
| 20260504183107 | 75 | 305 | 4.0 | 13.0 | 0.00 | 0.00 | 0.00 | 48 | 1011.4 |
| 20260504180030 | 76 | 316 | 3.0 | 7.0 | 0.00 | 0.00 | 0.00 | 49 | 1011.5 |
| 20260504174531 | 76 | 315 | 2.0 | 6.0 | 0.00 | 0.00 | 0.00 | 50 | 1011.5 |
| 20260504171530 | 74 | 334 | 0.0 | 4.0 | 0.00 | 0.00 | 0.00 | 50 | 1011.6 |